Time;durP1;ratioP1;P1;durP2;ratioP2;P2;SDS_P1;SDS_P2;PMS_P1;PMS_P2;Temp;Humidity;BMP_temperature;BMP_pressure;BME280_temperature;BME280_humidity;BME280_pressure;Samples;Min_cycle;Max_cycle;Signal;HPM_P1;HPM_P2
2022/04/22 00:02:11;;;;;;;24.67;18.08;;;;;;;;;;5042877;28;20037;-90
2022/04/22 00:04:38;;;;;;;26.08;19.08;;;;;;;;;;5040358;28;20473;-88
2022/04/22 00:07:06;;;;;;;25.88;18.40;;;;;;;;;;5039719;28;20050;-90
2022/04/22 00:09:33;;;;;;;27.52;19.45;;;;;;;;;;5038577;28;20095;-89
2022/04/22 00:12:00;;;;;;;23.30;18.38;;;;;;;;;;5039747;28;20052;-89
2022/04/22 00:14:27;;;;;;;24.95;18.15;;;;;;;;;;5038664;28;20068;-89
2022/04/22 00:16:54;;;;;;;24.77;18.38;;;;;;;;;;5038478;28;20072;-89
2022/04/22 00:19:22;;;;;;;25.35;18.85;;;;;;;;;;5039765;28;20059;-89
2022/04/22 00:21:49;;;;;;;22.58;17.38;;;;;;;;;;5038331;28;20064;-90
2022/04/22 00:24:16;;;;;;;21.63;16.42;;;;;;;;;;5038424;28;20077;-89
2022/04/22 00:26:43;;;;;;;21.10;15.98;;;;;;;;;;5039801;28;20060;-90
2022/04/22 00:29:11;;;;;;;19.65;15.93;;;;;;;;;;5038451;28;20071;-89
2022/04/22 00:31:38;;;;;;;21.60;16.27;;;;;;;;;;5038453;28;20123;-89
2022/04/22 00:34:06;;;;;;;23.50;17.30;;;;;;;;;;5039167;28;20516;-89
2022/04/22 00:36:33;;;;;;;24.77;17.48;;;;;;;;;;5038335;28;20438;-89
2022/04/22 00:39:01;;;;;;;19.63;14.98;;;;;;;;;;5039588;28;20133;-89
2022/04/22 00:41:29;;;;;;;20.13;15.07;;;;;;;;;;5038159;28;20046;-90
2022/04/22 00:43:57;;;;;;;20.83;16.73;;;;;;;;;;5039518;28;20049;-90
2022/04/22 00:46:24;;;;;;;21.73;16.52;;;;;;;;;;5038285;28;20056;-89
2022/04/22 00:48:51;;;;;;;21.50;15.55;;;;;;;;;;5039462;28;20049;-89
2022/04/22 00:51:21;;;;;;;24.85;18.17;;;;;;;;;;5038689;28;20417;-89
2022/04/22 00:53:49;;;;;;;21.17;15.98;;;;;;;;;;5038443;28;20509;-89
2022/04/22 00:56:17;;;;;;;22.17;16.63;;;;;;;;;;5038358;28;20080;-90
2022/04/22 00:58:45;;;;;;;21.65;15.57;;;;;;;;;;5038275;28;20276;-89
2022/04/22 01:01:13;;;;;;;21.73;16.77;;;;;;;;;;5038279;28;20053;-89
2022/04/22 01:09:47;;;;;;;21.13;16.52;;;;;;;;;;5038152;28;20049;-89
2022/04/22 01:12:01;;;;;;;20.02;15.43;;;;;;;;;;5036003;28;20113;-89
2022/04/22 01:14:28;;;;;;;19.40;15.40;;;;;;;;;;5036278;28;20055;-90
2022/04/22 01:16:56;;;;;;;22.63;15.98;;;;;;;;;;5036649;28;20524;-89
2022/04/22 01:19:23;;;;;;;20.05;15.57;;;;;;;;;;5037480;28;20111;-90
2022/04/22 01:21:50;;;;;;;20.05;15.85;;;;;;;;;;5036361;28;20136;-89
2022/04/22 01:24:17;;;;;;;19.55;15.60;;;;;;;;;;5035089;28;20050;-89
2022/04/22 01:26:45;;;;;;;24.65;18.25;;;;;;;;;;5035796;28;20407;-89
2022/04/22 01:29:14;;;;;;;25.83;18.08;;;;;;;;;;5036023;28;20137;-90
2022/04/22 01:31:43;;;;;;;22.63;17.42;;;;;;;;;;5035114;28;20132;-89
2022/04/22 01:34:11;;;;;;;24.83;19.23;;;;;;;;;;5035021;28;20111;-89
2022/04/22 01:36:38;;;;;;;25.67;19.30;;;;;;;;;;5035789;28;20060;-89
2022/04/22 01:39:05;;;;;;;24.70;19.90;;;;;;;;;;5035634;28;20050;-89
2022/04/22 01:41:32;;;;;;;25.50;19.75;;;;;;;;;;5034535;28;20045;-89
2022/04/22 01:44:00;;;;;;;28.40;20.77;;;;;;;;;;5034815;28;20045;-89
2022/04/22 01:46:27;;;;;;;27.45;21.90;;;;;;;;;;5034669;28;20484;-89
2022/04/22 01:48:54;;;;;;;29.40;21.77;;;;;;;;;;5035647;28;20081;-89
2022/04/22 01:51:21;;;;;;;30.45;21.85;;;;;;;;;;5034535;28;20045;-89
2022/04/22 01:53:48;;;;;;;27.95;20.55;;;;;;;;;;5034373;28;20087;-89
2022/04/22 01:56:15;;;;;;;24.73;19.85;;;;;;;;;;5035389;28;20124;-90
2022/04/22 01:58:42;;;;;;;25.05;19.08;;;;;;;;;;5034410;28;20052;-89
2022/04/22 02:01:10;;;;;;;26.25;20.13;;;;;;;;;;5035523;28;20132;-89
2022/04/22 02:03:37;;;;;;;23.10;18.15;;;;;;;;;;5034965;28;20049;-89
2022/04/22 02:06:04;;;;;;;22.48;17.85;;;;;;;;;;5033722;28;20548;-89
2022/04/22 02:08:31;;;;;;;22.50;17.05;;;;;;;;;;5034997;28;20063;-89
2022/04/22 02:10:59;;;;;;;20.65;16.58;;;;;;;;;;5034033;28;20085;-89
2022/04/22 02:13:26;;;;;;;22.60;18.23;;;;;;;;;;5033822;28;20514;-90
2022/04/22 02:15:53;;;;;;;23.92;18.58;;;;;;;;;;5033697;28;20053;-89
2022/04/22 02:18:20;;;;;;;22.15;18.42;;;;;;;;;;5033570;28;20049;-89
2022/04/22 02:20:49;;;;;;;22.45;17.17;;;;;;;;;;5033272;28;20132;-89
2022/04/22 02:23:17;;;;;;;24.67;17.90;;;;;;;;;;5033619;28;20046;-89
2022/04/22 02:25:44;;;;;;;24.00;17.63;;;;;;;;;;5033500;28;20053;-89
2022/04/22 02:30:57;;;;;;;22.02;16.98;;;;;;;;;;5034381;28;20128;-90
2022/04/22 02:33:24;;;;;;;27.95;19.05;;;;;;;;;;5034432;28;20136;-89
2022/04/22 02:35:51;;;;;;;28.73;20.98;;;;;;;;;;5034156;28;20050;-89
2022/04/22 02:38:18;;;;;;;25.85;20.30;;;;;;;;;;5034423;28;20132;-88
2022/04/22 02:46:17;;;;;;;26.73;20.08;;;;;;;;;;5034092;28;20389;-88
2022/04/22 02:48:44;;;;;;;29.20;21.30;;;;;;;;;;5033025;28;20502;-89
2022/04/22 02:51:12;;;;;;;29.90;20.92;;;;;;;;;;5033344;28;20080;-89
2022/04/22 02:53:39;;;;;;;27.83;20.60;;;;;;;;;;5033872;28;20140;-88
2022/04/22 02:56:07;;;;;;;27.75;20.08;;;;;;;;;;5032982;28;20045;-90
2022/04/22 02:58:34;;;;;;;32.45;22.48;;;;;;;;;;5033227;28;20132;-88
2022/04/22 03:01:02;;;;;;;31.08;24.17;;;;;;;;;;5033046;28;20132;-88
2022/04/22 03:03:30;;;;;;;33.05;25.17;;;;;;;;;;5033985;28;20115;-89
2022/04/22 03:05:57;;;;;;;35.35;25.38;;;;;;;;;;5033791;28;20132;-89
2022/04/22 03:08:24;;;;;;;32.30;24.30;;;;;;;;;;5032669;28;20457;-88
2022/04/22 03:10:52;;;;;;;37.13;27.98;;;;;;;;;;5032735;28;20056;-90
2022/04/22 03:13:19;;;;;;;39.88;27.42;;;;;;;;;;5033730;28;20128;-90
2022/04/22 03:15:46;;;;;;;38.15;27.23;;;;;;;;;;5033419;28;20096;-89
2022/04/22 03:18:13;;;;;;;38.78;27.52;;;;;;;;;;5033354;28;20051;-90
2022/04/22 03:20:41;;;;;;;39.40;29.10;;;;;;;;;;5033659;28;20453;-89
2022/04/22 03:23:08;;;;;;;39.97;28.00;;;;;;;;;;5032427;28;20077;-89
2022/04/22 03:25:35;;;;;;;42.03;29.27;;;;;;;;;;5032426;28;20475;-89
2022/04/22 03:28:05;;;;;;;43.03;30.10;;;;;;;;;;5032567;28;20055;-89
2022/04/22 03:30:34;;;;;;;41.33;28.92;;;;;;;;;;5032496;28;20092;-89
2022/04/22 03:33:02;;;;;;;42.22;30.90;;;;;;;;;;5032662;28;20045;-89
2022/04/22 03:35:29;;;;;;;40.30;28.50;;;;;;;;;;5032220;28;20053;-89
2022/04/22 03:37:56;;;;;;;40.00;29.10;;;;;;;;;;5032468;28;20055;-88
2022/04/22 03:40:24;;;;;;;40.67;28.90;;;;;;;;;;5033076;28;20114;-88
2022/04/22 03:42:52;;;;;;;40.38;29.08;;;;;;;;;;5032391;28;20132;-89
2022/04/22 03:45:22;;;;;;;41.88;29.25;;;;;;;;;;5032236;28;20052;-89
2022/04/22 03:47:49;;;;;;;39.63;28.40;;;;;;;;;;5033346;28;20505;-89
2022/04/22 03:50:16;;;;;;;43.05;28.73;;;;;;;;;;5035207;28;20124;-89
2022/04/22 03:52:43;;;;;;;39.08;28.33;;;;;;;;;;5032236;28;20124;-89
2022/04/22 03:55:11;;;;;;;40.00;29.08;;;;;;;;;;5032435;28;20137;-89
2022/04/22 04:00:24;;;;;;;38.85;28.25;;;;;;;;;;5032812;28;20120;-89
2022/04/22 04:02:51;;;;;;;40.30;29.13;;;;;;;;;;5032958;28;20196;-89
2022/04/22 04:05:18;;;;;;;39.53;28.20;;;;;;;;;;5033400;28;20410;-89
2022/04/22 04:07:46;;;;;;;43.30;28.08;;;;;;;;;;5032107;28;20049;-89
2022/04/22 04:16:03;;;;;;;37.88;28.48;;;;;;;;;;5032860;28;20085;-89
2022/04/22 04:18:31;;;;;;;39.90;28.08;;;;;;;;;;5031933;28;20088;-89
2022/04/22 04:23:45;;;;;;;36.30;28.00;;;;;;;;;;5032737;28;20053;-89
2022/04/22 04:26:15;;;;;;;40.72;27.48;;;;;;;;;;5031833;28;20113;-89
2022/04/22 04:28:44;;;;;;;38.70;26.70;;;;;;;;;;5033144;28;20077;-89
2022/04/22 04:31:11;;;;;;;35.90;25.92;;;;;;;;;;5032178;28;20045;-89
2022/04/22 04:33:39;;;;;;;36.25;26.95;;;;;;;;;;5031752;28;20050;-89
2022/04/22 04:36:06;;;;;;;36.42;26.33;;;;;;;;;;5031848;28;20080;-89
2022/04/22 04:38:34;;;;;;;35.47;27.58;;;;;;;;;;5032115;28;20072;-90
2022/04/22 04:41:02;;;;;;;36.88;26.95;;;;;;;;;;5031946;28;20049;-89
2022/04/22 04:43:29;;;;;;;37.00;26.80;;;;;;;;;;5033687;28;20057;-89
2022/04/22 04:45:56;;;;;;;35.33;26.73;;;;;;;;;;5036522;28;20486;-89
2022/04/22 04:48:23;;;;;;;36.75;26.58;;;;;;;;;;5035588;28;20100;-89
2022/04/22 04:50:51;;;;;;;38.88;25.67;;;;;;;;;;5036574;28;20076;-89
2022/04/22 04:53:23;;;;;;;37.22;26.67;;;;;;;;;;5035593;28;20111;-90
2022/04/22 04:55:52;;;;;;;34.33;25.63;;;;;;;;;;5035448;28;20512;-89
2022/04/22 04:58:20;;;;;;;36.65;25.90;;;;;;;;;;5036200;28;20049;-89
2022/04/22 05:00:48;;;;;;;34.58;25.15;;;;;;;;;;5036318;28;20052;-89
2022/04/22 05:03:15;;;;;;;34.95;25.08;;;;;;;;;;5035902;28;20548;-89
2022/04/22 05:05:42;;;;;;;37.85;25.85;;;;;;;;;;5035901;28;20056;-89
2022/04/22 05:08:10;;;;;;;34.60;25.95;;;;;;;;;;5035332;28;20049;-89
2022/04/22 05:10:37;;;;;;;34.75;24.83;;;;;;;;;;5034210;28;20050;-89
2022/04/22 05:13:04;;;;;;;36.78;25.27;;;;;;;;;;5036060;28;20513;-89
2022/04/22 05:15:33;;;;;;;38.83;26.48;;;;;;;;;;5034757;28;20508;-89
2022/04/22 05:18:02;;;;;;;34.53;26.13;;;;;;;;;;5036166;28;20077;-89
2022/04/22 05:20:30;;;;;;;34.97;24.95;;;;;;;;;;5035004;28;20061;-89
2022/04/22 05:22:58;;;;;;;44.65;31.63;;;;;;;;;;5035748;28;20049;-89
2022/04/22 05:25:25;;;;;;;41.22;29.00;;;;;;;;;;5034860;28;20072;-89
2022/04/22 05:27:53;;;;;;;65.43;43.30;;;;;;;;;;5035111;28;20128;-89
2022/04/22 05:33:06;;;;;;;40.53;28.75;;;;;;;;;;5036059;28;20079;-89
2022/04/22 05:35:34;;;;;;;44.63;32.25;;;;;;;;;;5034639;28;20064;-88
2022/04/22 05:38:03;;;;;;;49.33;35.03;;;;;;;;;;5034848;28;20060;-89
2022/04/22 05:40:33;;;;;;;43.15;30.05;;;;;;;;;;5034533;28;20057;-89
2022/04/22 05:43:01;;;;;;;38.10;27.25;;;;;;;;;;5035499;28;20045;-88
2022/04/22 05:45:29;;;;;;;56.03;38.42;;;;;;;;;;5034736;28;20132;-89
2022/04/22 05:47:59;;;;;;;48.50;33.45;;;;;;;;;;5034632;28;20505;-88
2022/04/22 05:50:27;;;;;;;48.78;33.35;;;;;;;;;;5034421;28;20088;-89
2022/04/22 05:52:54;;;;;;;44.03;32.95;;;;;;;;;;5034758;28;20124;-89
2022/04/22 05:55:23;;;;;;;39.55;29.52;;;;;;;;;;5034315;28;20140;-88
2022/04/22 05:57:51;;;;;;;39.47;29.58;;;;;;;;;;5035522;28;20136;-89
2022/04/22 06:00:19;;;;;;;52.03;38.45;;;;;;;;;;5035325;28;20050;-89
2022/04/22 06:02:47;;;;;;;38.30;28.48;;;;;;;;;;5035264;28;20579;-89
2022/04/22 06:05:15;;;;;;;34.55;25.58;;;;;;;;;;5033990;28;20057;-88
2022/04/22 06:07:43;;;;;;;35.72;25.75;;;;;;;;;;5033894;28;20132;-88
2022/04/22 06:12:58;;;;;;;35.92;25.73;;;;;;;;;;5035309;28;20092;-88
2022/04/22 06:15:25;;;;;;;33.25;25.15;;;;;;;;;;5037533;28;20153;-88
2022/04/22 06:17:52;;;;;;;38.47;25.60;;;;;;;;;;5037741;28;20072;-89
2022/04/22 06:20:20;;;;;;;31.98;24.35;;;;;;;;;;5038608;28;20064;-89
2022/04/22 06:22:47;;;;;;;43.25;29.48;;;;;;;;;;5034210;28;20050;-88
2022/04/22 06:25:14;;;;;;;47.90;34.45;;;;;;;;;;5034189;28;20077;-88
2022/04/22 06:27:42;;;;;;;34.35;24.67;;;;;;;;;;5033607;28;20132;-89
2022/04/22 06:30:13;;;;;;;42.13;31.85;;;;;;;;;;5035460;28;20136;-89
2022/04/22 06:32:41;;;;;;;35.80;26.30;;;;;;;;;;5035073;28;20057;-88
2022/04/22 06:35:09;;;;;;;58.92;44.53;;;;;;;;;;5033812;28;20080;-89
2022/04/22 06:37:37;;;;;;;36.90;25.70;;;;;;;;;;5034709;28;20459;-89
2022/04/22 06:45:47;;;;;;;31.10;23.75;;;;;;;;;;5034786;28;20055;-89
2022/04/22 06:48:14;;;;;;;33.95;24.17;;;;;;;;;;5034800;28;20064;-89
2022/04/22 06:51:02;;;;;;;39.05;28.30;;;;;;;;;;5033763;28;20482;-89
2022/04/22 06:53:30;;;;;;;34.85;26.73;;;;;;;;;;5034735;28;20064;-89
2022/04/22 06:56:00;;;;;;;34.05;26.83;;;;;;;;;;5033287;28;20080;-89
2022/04/22 06:58:30;;;;;;;39.15;25.60;;;;;;;;;;5033557;28;20045;-89
2022/04/22 07:00:57;;;;;;;34.45;25.40;;;;;;;;;;5033171;28;20073;-89
2022/04/22 07:03:24;;;;;;;32.08;25.02;;;;;;;;;;5033255;28;20430;-89
2022/04/22 07:05:52;;;;;;;31.50;22.92;;;;;;;;;;5033099;28;20045;-88
2022/04/22 07:08:20;;;;;;;28.90;23.08;;;;;;;;;;5032293;28;20053;-89
2022/04/22 07:10:52;;;;;;;31.25;24.05;;;;;;;;;;5033096;28;20052;-88
2022/04/22 07:13:19;;;;;;;29.75;22.92;;;;;;;;;;5032788;28;20083;-89
2022/04/22 07:15:50;;;;;;;31.48;23.92;;;;;;;;;;5032648;28;20562;-88
2022/04/22 07:18:17;;;;;;;30.38;23.05;;;;;;;;;;5033160;28;20128;-89
2022/04/22 07:20:45;;;;;;;29.73;22.70;;;;;;;;;;5032685;28;20466;-89
2022/04/22 07:23:14;;;;;;;27.58;22.02;;;;;;;;;;5032877;28;20085;-89
2022/04/22 07:25:46;;;;;;;32.63;21.73;;;;;;;;;;5032619;28;20128;-89
2022/04/22 07:28:13;;;;;;;28.75;21.67;;;;;;;;;;5032910;28;20045;-89
2022/04/22 07:30:46;;;;;;;25.10;20.42;;;;;;;;;;5033100;28;20103;-89
2022/04/22 07:33:13;;;;;;;31.02;21.73;;;;;;;;;;5034176;28;20072;-89
2022/04/22 07:35:41;;;;;;;28.38;21.35;;;;;;;;;;5040374;28;20113;-89
2022/04/22 07:38:10;;;;;;;28.80;21.98;;;;;;;;;;5033792;28;20056;-89
2022/04/22 07:40:40;;;;;;;24.92;20.15;;;;;;;;;;5032477;28;20136;-89
2022/04/22 07:48:39;;;;;;;22.05;18.02;;;;;;;;;;5033607;28;20109;-90
2022/04/22 07:51:06;;;;;;;21.77;16.30;;;;;;;;;;5032800;28;20080;-90
2022/04/22 07:53:35;;;;;;;21.65;17.02;;;;;;;;;;5032729;28;20099;-87
2022/04/22 07:56:05;;;;;;;19.63;17.00;;;;;;;;;;5032754;28;20091;-88
2022/04/22 07:58:32;;;;;;;23.30;17.80;;;;;;;;;;5033224;28;20136;-88
2022/04/22 08:01:00;;;;;;;23.67;19.15;;;;;;;;;;5032461;28;20064;-89
2022/04/22 08:03:27;;;;;;;25.17;18.70;;;;;;;;;;5033129;28;20085;-88
2022/04/22 08:05:54;;;;;;;24.08;19.77;;;;;;;;;;5031644;28;20053;-87
2022/04/22 08:08:21;;;;;;;22.02;18.77;;;;;;;;;;5032492;28;20045;-88
2022/04/22 08:10:48;;;;;;;26.52;19.85;;;;;;;;;;5032357;28;20053;-88
2022/04/22 08:13:15;;;;;;;25.27;20.08;;;;;;;;;;5032470;28;20049;-89
2022/04/22 08:15:43;;;;;;;24.30;19.63;;;;;;;;;;5032766;28;20057;-87
2022/04/22 08:18:10;;;;;;;24.90;20.13;;;;;;;;;;5032653;28;20053;-88
2022/04/22 08:20:37;;;;;;;27.63;19.90;;;;;;;;;;5036278;28;20073;-88
2022/04/22 08:23:06;;;;;;;22.20;18.13;;;;;;;;;;5036767;28;20045;-89
2022/04/22 08:25:33;;;;;;;22.98;18.02;;;;;;;;;;5036600;28;20132;-89
2022/04/22 08:28:02;;;;;;;20.23;16.65;;;;;;;;;;5036324;28;20049;-89
2022/04/22 08:30:29;;;;;;;16.58;14.75;;;;;;;;;;5035932;28;20138;-87
2022/04/22 08:32:57;;;;;;;16.02;14.10;;;;;;;;;;5035936;28;20053;-88
2022/04/22 08:35:25;;;;;;;17.63;13.75;;;;;;;;;;5036147;28;20136;-89
2022/04/22 08:37:52;;;;;;;18.17;13.40;;;;;;;;;;5036988;28;20045;-89
2022/04/22 08:40:20;;;;;;;15.32;13.07;;;;;;;;;;5036161;28;20053;-89
2022/04/22 08:42:49;;;;;;;18.20;14.02;;;;;;;;;;5035862;28;20045;-89
2022/04/22 08:45:17;;;;;;;18.13;13.32;;;;;;;;;;5035899;28;20172;-89
2022/04/22 08:50:30;;;;;;;13.68;12.27;;;;;;;;;;5042648;28;20059;-89
2022/04/22 08:52:58;;;;;;;12.60;11.30;;;;;;;;;;5037491;28;20091;-89
2022/04/22 08:55:26;;;;;;;15.82;12.10;;;;;;;;;;5035327;28;20059;-88
2022/04/22 08:57:54;;;;;;;17.60;12.23;;;;;;;;;;5043146;28;20057;-86
2022/04/22 09:00:27;;;;;;;12.93;11.63;;;;;;;;;;5046592;28;20057;-88
2022/04/22 09:02:57;;;;;;;14.13;11.20;;;;;;;;;;5046203;28;20121;-90
2022/04/22 09:05:26;;;;;;;14.35;11.75;;;;;;;;;;5044981;28;20050;-89
2022/04/22 09:07:54;;;;;;;15.38;11.95;;;;;;;;;;5040553;28;20393;-91
2022/04/22 09:10:21;;;;;;;16.08;11.15;;;;;;;;;;5038390;28;20104;-88
2022/04/22 09:12:52;;;;;;;11.60;10.48;;;;;;;;;;5041296;28;20045;-88
2022/04/22 09:15:22;;;;;;;12.38;11.15;;;;;;;;;;5043978;28;20092;-92
2022/04/22 09:17:49;;;;;;;15.75;11.00;;;;;;;;;;5046765;28;20073;-89
2022/04/22 09:20:16;;;;;;;15.40;12.13;;;;;;;;;;5051953;28;20137;-89
2022/04/22 09:22:46;;;;;;;12.80;11.43;;;;;;;;;;5055094;28;20090;-89
2022/04/22 09:25:22;;;;;;;11.65;10.32;;;;;;;;;;5055999;28;20044;-89
2022/04/22 09:27:49;;;;;;;12.10;10.90;;;;;;;;;;5056173;28;20045;-93
2022/04/22 09:30:17;;;;;;;12.40;11.18;;;;;;;;;;5054958;28;20576;-90
2022/04/22 09:32:45;;;;;;;12.75;11.45;;;;;;;;;;5055855;28;20057;-89
2022/04/22 09:35:16;;;;;;;13.80;10.75;;;;;;;;;;5055163;28;20048;-93
2022/04/22 09:43:36;;;;;;;12.80;11.45;;;;;;;;;;5055695;28;20048;-88
2022/04/22 09:46:24;;;;;;;13.10;11.70;;;;;;;;;;5039501;28;20057;-90
2022/04/22 09:48:52;;;;;;;13.98;10.60;;;;;;;;;;5035148;28;20049;-90
2022/04/22 09:51:27;;;;;;;20.48;12.85;;;;;;;;;;5034872;28;20559;-91
2022/04/22 09:54:01;;;;;;;16.15;13.25;;;;;;;;;;5034860;28;20548;-90
2022/04/22 09:56:29;;;;;;;13.70;12.38;;;;;;;;;;5034804;28;20084;-88
2022/04/22 09:58:56;;;;;;;14.75;13.30;;;;;;;;;;5034709;28;20095;-88
2022/04/22 10:01:24;;;;;;;15.80;13.27;;;;;;;;;;5036255;28;20049;-88
2022/04/22 10:04:12;;;;;;;17.73;14.07;;;;;;;;;;5035569;28;20407;-89
2022/04/22 10:06:40;;;;;;;20.30;13.98;;;;;;;;;;5038550;28;20071;-87
2022/04/22 10:09:09;;;;;;;17.55;14.27;;;;;;;;;;5034748;28;20045;-89
2022/04/22 10:11:37;;;;;;;15.77;14.18;;;;;;;;;;5034176;28;20627;-88
2022/04/22 10:14:06;;;;;;;15.02;13.48;;;;;;;;;;5034643;28;20141;-89
2022/04/22 10:16:33;;;;;;;15.68;13.43;;;;;;;;;;5033082;28;20077;-90
2022/04/22 10:19:01;;;;;;;16.83;13.63;;;;;;;;;;5034269;28;20053;-88
2022/04/22 10:21:28;;;;;;;14.38;12.88;;;;;;;;;;5034268;28;20497;-90
2022/04/22 10:23:59;;;;;;;13.85;11.50;;;;;;;;;;5034197;28;20047;-90
2022/04/22 10:26:26;;;;;;;15.55;12.18;;;;;;;;;;5042406;28;20080;-89
2022/04/22 10:28:54;;;;;;;13.95;12.52;;;;;;;;;;5053470;28;20049;-89
2022/04/22 10:31:22;;;;;;;13.20;11.80;;;;;;;;;;5054602;28;20096;-90
2022/04/22 10:33:49;;;;;;;13.45;11.98;;;;;;;;;;5054915;28;20059;-87
2022/04/22 10:36:24;;;;;;;13.25;11.90;;;;;;;;;;5053400;28;20064;-92
2022/04/22 10:38:51;;;;;;;14.40;11.68;;;;;;;;;;5053703;28;20166;-89
2022/04/22 10:41:20;;;;;;;13.52;12.13;;;;;;;;;;5053309;28;20071;-89
2022/04/22 10:49:20;;;;;;;15.02;13.43;;;;;;;;;;5054540;28;20051;-89
2022/04/22 10:52:10;;;;;;;16.70;13.00;;;;;;;;;;5053680;28;20052;-90
2022/04/22 10:54:46;;;;;;;17.23;13.70;;;;;;;;;;5053172;28;20076;-90
2022/04/22 10:57:17;;;;;;;15.48;13.88;;;;;;;;;;5054240;28;20059;-89
2022/04/22 10:59:44;;;;;;;17.38;13.38;;;;;;;;;;5054328;28;20056;-88
2022/04/22 11:02:28;;;;;;;20.23;13.02;;;;;;;;;;5053693;28;20478;-92
2022/04/22 11:07:48;;;;;;;13.95;12.27;;;;;;;;;;5054003;28;20049;-89
2022/04/22 11:10:15;;;;;;;13.80;12.15;;;;;;;;;;5054555;28;20083;-88
2022/04/22 11:12:53;;;;;;;14.90;13.10;;;;;;;;;;5053322;28;20532;-90
2022/04/22 11:15:40;;;;;;;18.83;13.00;;;;;;;;;;5052491;28;20057;-90
2022/04/22 11:18:08;;;;;;;15.68;12.50;;;;;;;;;;5053997;28;20139;-89
2022/04/22 11:20:35;;;;;;;16.95;11.55;;;;;;;;;;5054815;28;20048;-88
2022/04/22 11:23:05;;;;;;;12.98;11.30;;;;;;;;;;5057044;28;20052;-91
2022/04/22 11:25:33;;;;;;;13.32;11.07;;;;;;;;;;5052997;28;20140;-90
2022/04/22 11:28:02;;;;;;;12.85;10.90;;;;;;;;;;5052965;28;20159;-92
2022/04/22 11:30:30;;;;;;;11.82;10.60;;;;;;;;;;5053100;28;20162;-90
2022/04/22 11:33:02;;;;;;;11.90;10.48;;;;;;;;;;5053115;28;20045;-91
2022/04/22 11:35:34;;;;;;;15.57;8.73;;;;;;;;;;5052598;28;20052;-91
2022/04/22 11:38:06;;;;;;;10.45;9.23;;;;;;;;;;5052231;28;20511;-92
2022/04/22 11:40:39;;;;;;;12.57;10.00;;;;;;;;;;5053066;28;20071;-89
2022/04/22 11:43:10;;;;;;;10.53;9.47;;;;;;;;;;5052844;28;20083;-88
2022/04/22 11:45:40;;;;;;;12.45;11.15;;;;;;;;;;5052559;28;20080;-93
2022/04/22 11:48:10;;;;;;;14.70;10.23;;;;;;;;;;5053471;28;20556;-88
2022/04/22 11:50:41;;;;;;;13.85;11.30;;;;;;;;;;5053314;28;20045;-89
2022/04/22 11:53:18;;;;;;;56.25;34.83;;;;;;;;;;5052393;28;20049;-89
2022/04/22 11:55:47;;;;;;;69.82;36.90;;;;;;;;;;5053415;28;20049;-90
2022/04/22 11:58:24;;;;;;;37.80;21.58;;;;;;;;;;5053448;28;20098;-89
2022/04/22 12:06:31;;;;;;;16.58;13.55;;;;;;;;;;5055704;28;20053;-89
2022/04/22 12:09:03;;;;;;;15.40;12.18;;;;;;;;;;5054988;28;20059;-88
2022/04/22 12:11:38;;;;;;;21.75;17.15;;;;;;;;;;5052093;28;20080;-89
2022/04/22 12:14:05;;;;;;;14.27;11.73;;;;;;;;;;5045325;28;20045;-90
2022/04/22 12:16:32;;;;;;;14.18;10.05;;;;;;;;;;5050063;28;20502;-89
2022/04/22 12:19:00;;;;;;;12.45;10.70;;;;;;;;;;5053279;28;20489;-94
2022/04/22 12:21:32;;;;;;;11.85;10.65;;;;;;;;;;5051945;28;20219;-93
2022/04/22 12:24:02;;;;;;;12.25;10.30;;;;;;;;;;5051979;28;20044;-90
2022/04/22 12:26:44;;;;;;;14.32;10.80;;;;;;;;;;5052198;28;20420;-90
2022/04/22 12:29:15;;;;;;;13.88;11.07;;;;;;;;;;5053002;28;20131;-87
2022/04/22 12:31:53;;;;;;;13.82;12.18;;;;;;;;;;5052931;28;20486;-89
2022/04/22 12:34:31;;;;;;;17.45;13.00;;;;;;;;;;5054156;28;20053;-89
2022/04/22 12:36:59;;;;;;;13.73;12.18;;;;;;;;;;5053702;28;20053;-90
2022/04/22 12:39:38;;;;;;;14.95;11.82;;;;;;;;;;5052744;28;20075;-87
2022/04/22 12:42:07;;;;;;;17.73;12.02;;;;;;;;;;5051997;28;20045;-89
2022/04/22 12:44:34;;;;;;;16.20;12.27;;;;;;;;;;5051497;28;20106;-89
2022/04/22 12:52:47;;;;;;;24.33;14.07;;;;;;;;;;5052573;28;20136;-88
2022/04/22 12:55:16;;;;;;;21.08;13.77;;;;;;;;;;5052750;28;20057;-86
2022/04/22 12:57:43;;;;;;;21.20;13.57;;;;;;;;;;5051640;28;20049;-88
2022/04/22 13:00:15;;;;;;;18.08;13.95;;;;;;;;;;5052012;28;20128;-88
2022/04/22 13:03:03;;;;;;;17.67;13.93;;;;;;;;;;5051631;28;20052;-87
2022/04/22 13:05:32;;;;;;;20.15;13.50;;;;;;;;;;5054608;28;20045;-88
2022/04/22 13:08:08;;;;;;;19.30;13.10;;;;;;;;;;5055990;28;20129;-88
2022/04/22 13:10:36;;;;;;;16.10;13.43;;;;;;;;;;5055385;28;20132;-88
2022/04/22 13:13:09;;;;;;;19.20;12.52;;;;;;;;;;5055116;28;20084;-88
2022/04/22 13:15:37;;;;;;;17.08;12.75;;;;;;;;;;5055381;28;20060;-87
2022/04/22 13:18:04;;;;;;;16.02;12.90;;;;;;;;;;5054626;28;20531;-88
2022/04/22 13:20:31;;;;;;;18.55;13.45;;;;;;;;;;5055638;28;20080;-88
2022/04/22 13:22:58;;;;;;;15.95;13.32;;;;;;;;;;5056361;28;20053;-91
2022/04/22 13:25:26;;;;;;;16.02;13.15;;;;;;;;;;5056141;28;20076;-89
2022/04/22 13:27:53;;;;;;;14.30;11.98;;;;;;;;;;5056200;28;20099;-90
2022/04/22 13:30:20;;;;;;;16.98;12.38;;;;;;;;;;5054790;28;20555;-89
2022/04/22 13:32:47;;;;;;;18.75;12.82;;;;;;;;;;5055904;28;20049;-89
2022/04/22 13:35:14;;;;;;;14.88;12.48;;;;;;;;;;5054764;28;20440;-89
2022/04/22 13:37:42;;;;;;;16.48;13.23;;;;;;;;;;5054537;28;20045;-88
2022/04/22 13:40:09;;;;;;;14.63;12.23;;;;;;;;;;5055105;28;20442;-87
2022/04/22 13:42:36;;;;;;;17.95;12.25;;;;;;;;;;5054044;28;20416;-88
2022/04/22 13:53:21;;;;;;;14.77;11.18;;;;;;;;;;5060416;28;20293;-88
2022/04/22 13:55:49;;;;;;;14.63;11.65;;;;;;;;;;5054541;28;20127;-90
2022/04/22 13:58:17;;;;;;;14.20;10.65;;;;;;;;;;5054596;28;20083;-87
2022/04/22 14:00:45;;;;;;;17.05;11.32;;;;;;;;;;5054725;28;20080;-89
2022/04/22 14:03:12;;;;;;;13.32;10.68;;;;;;;;;;5055418;28;20045;-88
2022/04/22 14:05:40;;;;;;;10.73;9.43;;;;;;;;;;5053980;28;20144;-88
2022/04/22 14:08:07;;;;;;;14.90;9.90;;;;;;;;;;5055306;28;20045;-88
2022/04/22 14:10:34;;;;;;;10.70;9.45;;;;;;;;;;5053667;28;20064;-88
2022/04/22 14:13:01;;;;;;;11.73;9.90;;;;;;;;;;5054253;28;20072;-88
2022/04/22 14:15:29;;;;;;;10.23;8.77;;;;;;;;;;5053583;28;20092;-88
2022/04/22 14:17:56;;;;;;;6.97;6.35;;;;;;;;;;5053383;28;20059;-87
2022/04/22 14:20:24;;;;;;;5.78;5.07;;;;;;;;;;5053068;28;20056;-87
2022/04/22 14:22:51;;;;;;;4.57;4.18;;;;;;;;;;5053982;28;20049;-88
2022/04/22 14:25:18;;;;;;;4.28;3.88;;;;;;;;;;5054463;28;20132;-89
2022/04/22 14:27:45;;;;;;;4.45;3.80;;;;;;;;;;5053652;28;20152;-89
2022/04/22 14:30:13;;;;;;;14.70;4.20;;;;;;;;;;5054783;28;20099;-87
2022/04/22 14:32:40;;;;;;;5.10;3.80;;;;;;;;;;5054674;28;20053;-91
2022/04/22 14:35:09;;;;;;;6.95;3.28;;;;;;;;;;5054589;28;20084;-90
2022/04/22 14:37:36;;;;;;;3.95;3.65;;;;;;;;;;5053533;28;20080;-88
2022/04/22 14:40:03;;;;;;;4.10;3.80;;;;;;;;;;5053909;28;20064;-89
2022/04/22 14:42:31;;;;;;;4.65;3.60;;;;;;;;;;5053332;28;20136;-88
2022/04/22 14:44:58;;;;;;;3.67;3.38;;;;;;;;;;5053424;28;20401;-89
2022/04/22 14:47:26;;;;;;;8.00;3.92;;;;;;;;;;5054187;28;20079;-90
2022/04/22 14:49:53;;;;;;;4.18;3.78;;;;;;;;;;5053796;28;20441;-90
2022/04/22 14:52:20;;;;;;;6.47;4.00;;;;;;;;;;5053560;28;20395;-88
2022/04/22 14:54:48;;;;;;;4.10;3.70;;;;;;;;;;5064643;28;20055;-88
2022/04/22 14:57:15;;;;;;;5.95;4.20;;;;;;;;;;5062987;28;20055;-89
2022/04/22 14:59:47;;;;;;;4.65;4.25;;;;;;;;;;5055678;28;20068;-88
2022/04/22 15:02:14;;;;;;;4.90;4.25;;;;;;;;;;5053147;28;20136;-89
2022/04/22 15:04:42;;;;;;;4.65;4.30;;;;;;;;;;5053651;28;20048;-89
2022/04/22 15:07:09;;;;;;;4.05;3.75;;;;;;;;;;5057704;28;20493;-88
2022/04/22 15:09:38;;;;;;;5.05;4.65;;;;;;;;;;5056640;28;20132;-88
2022/04/22 15:12:06;;;;;;;5.30;4.20;;;;;;;;;;5053491;28;20484;-90
2022/04/22 15:14:33;;;;;;;5.90;5.38;;;;;;;;;;5054458;28;20087;-87
2022/04/22 15:17:02;;;;;;;7.07;5.85;;;;;;;;;;5052618;28;20056;-89
2022/04/22 15:25:01;;;;;;;5.95;5.43;;;;;;;;;;5053920;28;20085;-89
2022/04/22 15:27:30;;;;;;;6.90;5.07;;;;;;;;;;5051892;28;20059;-94
2022/04/22 15:29:58;;;;;;;5.50;5.03;;;;;;;;;;5054941;28;20049;-90
2022/04/22 15:32:29;;;;;;;8.50;5.35;;;;;;;;;;5057230;28;20073;-87
2022/04/22 15:34:56;;;;;;;6.68;5.53;;;;;;;;;;5052868;28;20136;-86
2022/04/22 15:37:23;;;;;;;7.95;5.60;;;;;;;;;;5053897;28;20139;-89
2022/04/22 15:39:50;;;;;;;9.48;5.07;;;;;;;;;;5054442;28;20131;-92
2022/04/22 15:42:17;;;;;;;7.10;5.70;;;;;;;;;;5053509;28;20053;-89
2022/04/22 15:44:45;;;;;;;7.20;5.10;;;;;;;;;;5053754;28;20413;-91
2022/04/22 15:47:12;;;;;;;6.60;5.63;;;;;;;;;;5054835;28;20588;-88
2022/04/22 15:49:41;;;;;;;6.20;5.65;;;;;;;;;;5057096;28;20068;-91
2022/04/22 15:52:12;;;;;;;6.25;5.65;;;;;;;;;;5061220;28;20045;-85
2022/04/22 15:54:53;;;;;;;11.15;10.05;;;;;;;;;;5054255;28;20098;-85